sensor_id;sensor_type;location;lat;lon;timestamp;P1;durP1;ratioP1;P2;durP2;ratioP2
24787;SDS011;12883;52.662;5.196;2023-04-06T00:00:45;8.90;;;8.90;;
24787;SDS011;12883;52.662;5.196;2023-04-06T00:03:11;8.10;;;8.10;;
24787;SDS011;12883;52.662;5.196;2023-04-06T00:05:36;8.37;;;8.37;;
24787;SDS011;12883;52.662;5.196;2023-04-06T00:08:02;7.93;;;7.93;;
24787;SDS011;12883;52.662;5.196;2023-04-06T00:10:27;8.50;;;8.50;;
24787;SDS011;12883;52.662;5.196;2023-04-06T00:12:52;8.17;;;8.17;;
24787;SDS011;12883;52.662;5.196;2023-04-06T00:15:19;7.93;;;7.93;;
24787;SDS011;12883;52.662;5.196;2023-04-06T00:17:45;8.30;;;8.30;;
24787;SDS011;12883;52.662;5.196;2023-04-06T00:20:10;8.80;;;8.80;;
24787;SDS011;12883;52.662;5.196;2023-04-06T00:22:36;8.43;;;8.43;;
24787;SDS011;12883;52.662;5.196;2023-04-06T00:25:01;8.63;;;8.63;;
24787;SDS011;12883;52.662;5.196;2023-04-06T00:27:27;8.63;;;8.63;;
24787;SDS011;12883;52.662;5.196;2023-04-06T00:29:52;8.50;;;8.50;;
24787;SDS011;12883;52.662;5.196;2023-04-06T00:32:17;9.07;;;9.07;;
24787;SDS011;12883;52.662;5.196;2023-04-06T00:34:43;8.13;;;8.13;;
24787;SDS011;12883;52.662;5.196;2023-04-06T00:37:08;8.10;;;8.10;;
24787;SDS011;12883;52.662;5.196;2023-04-06T00:39:33;8.93;;;8.93;;
24787;SDS011;12883;52.662;5.196;2023-04-06T00:41:59;8.40;;;8.40;;
24787;SDS011;12883;52.662;5.196;2023-04-06T00:44:25;8.03;;;8.03;;
24787;SDS011;12883;52.662;5.196;2023-04-06T00:46:51;8.33;;;8.33;;
24787;SDS011;12883;52.662;5.196;2023-04-06T00:49:17;8.67;;;8.67;;
24787;SDS011;12883;52.662;5.196;2023-04-06T00:51:43;8.97;;;8.97;;
24787;SDS011;12883;52.662;5.196;2023-04-06T00:54:08;8.87;;;8.87;;
24787;SDS011;12883;52.662;5.196;2023-04-06T00:56:33;8.67;;;8.67;;
24787;SDS011;12883;52.662;5.196;2023-04-06T00:58:59;9.13;;;9.13;;
24787;SDS011;12883;52.662;5.196;2023-04-06T01:01:25;9.10;;;9.07;;
24787;SDS011;12883;52.662;5.196;2023-04-06T01:03:51;9.30;;;9.30;;
24787;SDS011;12883;52.662;5.196;2023-04-06T01:06:16;8.27;;;8.27;;
24787;SDS011;12883;52.662;5.196;2023-04-06T01:08:42;9.23;;;9.23;;
24787;SDS011;12883;52.662;5.196;2023-04-06T01:11:07;8.67;;;8.67;;
24787;SDS011;12883;52.662;5.196;2023-04-06T01:13:33;8.63;;;8.63;;
24787;SDS011;12883;52.662;5.196;2023-04-06T01:15:58;9.00;;;9.00;;
24787;SDS011;12883;52.662;5.196;2023-04-06T01:18:27;8.77;;;8.77;;
24787;SDS011;12883;52.662;5.196;2023-04-06T01:20:54;9.03;;;9.03;;
24787;SDS011;12883;52.662;5.196;2023-04-06T01:23:19;8.73;;;8.73;;
24787;SDS011;12883;52.662;5.196;2023-04-06T01:25:45;8.93;;;8.93;;
24787;SDS011;12883;52.662;5.196;2023-04-06T01:28:10;9.50;;;9.50;;
24787;SDS011;12883;52.662;5.196;2023-04-06T01:30:35;10.20;;;10.20;;
24787;SDS011;12883;52.662;5.196;2023-04-06T01:33:01;10.30;;;10.30;;
24787;SDS011;12883;52.662;5.196;2023-04-06T01:35:26;9.10;;;9.10;;
24787;SDS011;12883;52.662;5.196;2023-04-06T01:37:53;9.43;;;9.43;;
24787;SDS011;12883;52.662;5.196;2023-04-06T01:40:18;9.57;;;9.57;;
24787;SDS011;12883;52.662;5.196;2023-04-06T01:42:44;9.13;;;9.13;;
24787;SDS011;12883;52.662;5.196;2023-04-06T01:45:10;8.40;;;8.40;;
24787;SDS011;12883;52.662;5.196;2023-04-06T01:47:35;9.03;;;9.03;;
24787;SDS011;12883;52.662;5.196;2023-04-06T01:50:00;9.33;;;9.33;;
24787;SDS011;12883;52.662;5.196;2023-04-06T01:52:27;9.40;;;9.40;;
24787;SDS011;12883;52.662;5.196;2023-04-06T01:54:53;8.57;;;8.57;;
24787;SDS011;12883;52.662;5.196;2023-04-06T01:57:18;8.30;;;8.30;;
24787;SDS011;12883;52.662;5.196;2023-04-06T01:59:43;8.90;;;8.90;;
24787;SDS011;12883;52.662;5.196;2023-04-06T02:02:08;8.63;;;8.63;;
24787;SDS011;12883;52.662;5.196;2023-04-06T02:04:34;9.07;;;9.07;;
24787;SDS011;12883;52.662;5.196;2023-04-06T02:06:59;8.83;;;8.83;;
24787;SDS011;12883;52.662;5.196;2023-04-06T02:09:25;8.37;;;8.37;;
24787;SDS011;12883;52.662;5.196;2023-04-06T02:11:50;9.07;;;9.07;;
24787;SDS011;12883;52.662;5.196;2023-04-06T02:14:15;9.20;;;9.20;;
24787;SDS011;12883;52.662;5.196;2023-04-06T02:16:41;8.40;;;8.40;;
24787;SDS011;12883;52.662;5.196;2023-04-06T02:19:06;8.97;;;8.97;;
24787;SDS011;12883;52.662;5.196;2023-04-06T02:21:31;8.70;;;8.70;;
24787;SDS011;12883;52.662;5.196;2023-04-06T02:23:57;9.10;;;9.10;;
24787;SDS011;12883;52.662;5.196;2023-04-06T02:26:22;8.83;;;8.83;;
24787;SDS011;12883;52.662;5.196;2023-04-06T02:28:48;8.60;;;8.60;;
24787;SDS011;12883;52.662;5.196;2023-04-06T02:31:14;7.73;;;7.73;;
24787;SDS011;12883;52.662;5.196;2023-04-06T02:33:40;8.33;;;8.33;;
24787;SDS011;12883;52.662;5.196;2023-04-06T02:36:05;8.37;;;8.37;;
24787;SDS011;12883;52.662;5.196;2023-04-06T02:38:31;8.17;;;8.17;;
24787;SDS011;12883;52.662;5.196;2023-04-06T02:40:56;8.60;;;8.60;;
24787;SDS011;12883;52.662;5.196;2023-04-06T02:43:22;8.47;;;8.47;;
24787;SDS011;12883;52.662;5.196;2023-04-06T02:45:47;7.90;;;7.90;;
24787;SDS011;12883;52.662;5.196;2023-04-06T02:48:13;7.60;;;7.60;;
24787;SDS011;12883;52.662;5.196;2023-04-06T02:50:38;8.00;;;8.00;;
24787;SDS011;12883;52.662;5.196;2023-04-06T02:53:04;8.53;;;8.53;;
24787;SDS011;12883;52.662;5.196;2023-04-06T02:55:29;7.73;;;7.73;;
24787;SDS011;12883;52.662;5.196;2023-04-06T02:57:55;7.73;;;7.73;;
24787;SDS011;12883;52.662;5.196;2023-04-06T03:00:20;8.43;;;8.43;;
24787;SDS011;12883;52.662;5.196;2023-04-06T03:02:46;8.43;;;8.43;;
24787;SDS011;12883;52.662;5.196;2023-04-06T03:05:11;7.73;;;7.73;;
24787;SDS011;12883;52.662;5.196;2023-04-06T03:07:36;8.37;;;8.37;;
24787;SDS011;12883;52.662;5.196;2023-04-06T03:10:02;7.80;;;7.80;;
24787;SDS011;12883;52.662;5.196;2023-04-06T03:12:27;7.60;;;7.60;;
24787;SDS011;12883;52.662;5.196;2023-04-06T03:14:53;7.70;;;7.70;;
24787;SDS011;12883;52.662;5.196;2023-04-06T03:17:18;8.30;;;8.30;;
24787;SDS011;12883;52.662;5.196;2023-04-06T03:19:43;8.07;;;8.07;;
24787;SDS011;12883;52.662;5.196;2023-04-06T03:22:09;7.70;;;7.70;;
24787;SDS011;12883;52.662;5.196;2023-04-06T03:24:34;8.10;;;8.10;;
24787;SDS011;12883;52.662;5.196;2023-04-06T03:27:00;7.83;;;7.83;;
24787;SDS011;12883;52.662;5.196;2023-04-06T03:29:25;8.30;;;8.30;;
24787;SDS011;12883;52.662;5.196;2023-04-06T03:31:52;7.80;;;7.80;;
24787;SDS011;12883;52.662;5.196;2023-04-06T03:34:17;7.93;;;7.93;;
24787;SDS011;12883;52.662;5.196;2023-04-06T03:36:42;7.57;;;7.57;;
24787;SDS011;12883;52.662;5.196;2023-04-06T03:39:08;8.33;;;8.33;;
24787;SDS011;12883;52.662;5.196;2023-04-06T03:41:33;8.17;;;8.17;;
24787;SDS011;12883;52.662;5.196;2023-04-06T03:43:59;7.17;;;7.17;;
24787;SDS011;12883;52.662;5.196;2023-04-06T03:46:24;7.80;;;7.80;;
24787;SDS011;12883;52.662;5.196;2023-04-06T03:48:49;8.30;;;8.30;;
24787;SDS011;12883;52.662;5.196;2023-04-06T03:51:15;7.00;;;7.00;;
24787;SDS011;12883;52.662;5.196;2023-04-06T03:53:40;7.60;;;7.60;;
24787;SDS011;12883;52.662;5.196;2023-04-06T03:56:05;7.50;;;7.50;;
24787;SDS011;12883;52.662;5.196;2023-04-06T03:58:31;7.07;;;7.07;;
24787;SDS011;12883;52.662;5.196;2023-04-06T04:00:56;7.43;;;7.43;;
24787;SDS011;12883;52.662;5.196;2023-04-06T04:03:22;8.70;;;8.70;;
24787;SDS011;12883;52.662;5.196;2023-04-06T04:05:48;8.93;;;8.93;;
24787;SDS011;12883;52.662;5.196;2023-04-06T04:08:15;7.80;;;7.80;;
24787;SDS011;12883;52.662;5.196;2023-04-06T04:10:40;9.00;;;9.00;;
24787;SDS011;12883;52.662;5.196;2023-04-06T04:13:06;7.90;;;7.90;;
24787;SDS011;12883;52.662;5.196;2023-04-06T04:15:31;8.00;;;8.00;;
24787;SDS011;12883;52.662;5.196;2023-04-06T04:17:56;8.30;;;8.30;;
24787;SDS011;12883;52.662;5.196;2023-04-06T04:20:22;8.30;;;8.30;;
24787;SDS011;12883;52.662;5.196;2023-04-06T04:22:47;8.33;;;8.33;;
24787;SDS011;12883;52.662;5.196;2023-04-06T04:25:13;9.07;;;9.07;;
24787;SDS011;12883;52.662;5.196;2023-04-06T04:27:38;9.43;;;9.43;;
24787;SDS011;12883;52.662;5.196;2023-04-06T04:30:04;8.27;;;8.27;;
24787;SDS011;12883;52.662;5.196;2023-04-06T04:32:30;9.80;;;9.80;;
24787;SDS011;12883;52.662;5.196;2023-04-06T04:34:56;10.67;;;10.67;;
24787;SDS011;12883;52.662;5.196;2023-04-06T04:37:21;9.33;;;9.33;;
24787;SDS011;12883;52.662;5.196;2023-04-06T04:39:46;9.37;;;9.37;;
24787;SDS011;12883;52.662;5.196;2023-04-06T04:42:12;9.90;;;9.90;;
24787;SDS011;12883;52.662;5.196;2023-04-06T04:44:38;9.80;;;9.80;;
24787;SDS011;12883;52.662;5.196;2023-04-06T04:47:04;10.77;;;10.77;;
24787;SDS011;12883;52.662;5.196;2023-04-06T04:49:29;10.13;;;10.13;;
24787;SDS011;12883;52.662;5.196;2023-04-06T04:51:55;10.83;;;10.83;;
24787;SDS011;12883;52.662;5.196;2023-04-06T04:54:20;11.03;;;11.03;;
24787;SDS011;12883;52.662;5.196;2023-04-06T04:56:46;10.77;;;10.77;;
24787;SDS011;12883;52.662;5.196;2023-04-06T04:59:11;10.57;;;10.57;;
24787;SDS011;12883;52.662;5.196;2023-04-06T05:01:37;10.80;;;10.80;;
24787;SDS011;12883;52.662;5.196;2023-04-06T05:04:02;10.17;;;10.17;;
24787;SDS011;12883;52.662;5.196;2023-04-06T05:06:27;10.97;;;10.97;;
24787;SDS011;12883;52.662;5.196;2023-04-06T05:08:53;11.40;;;11.40;;
24787;SDS011;12883;52.662;5.196;2023-04-06T05:11:18;10.27;;;10.27;;
24787;SDS011;12883;52.662;5.196;2023-04-06T05:13:43;10.87;;;10.87;;
24787;SDS011;12883;52.662;5.196;2023-04-06T05:16:09;10.67;;;10.67;;
24787;SDS011;12883;52.662;5.196;2023-04-06T05:18:35;10.50;;;10.50;;
24787;SDS011;12883;52.662;5.196;2023-04-06T05:21:00;10.73;;;10.73;;
24787;SDS011;12883;52.662;5.196;2023-04-06T05:23:26;10.40;;;10.40;;
24787;SDS011;12883;52.662;5.196;2023-04-06T05:25:51;11.17;;;11.17;;
24787;SDS011;12883;52.662;5.196;2023-04-06T05:28:17;10.87;;;10.87;;
24787;SDS011;12883;52.662;5.196;2023-04-06T05:30:43;11.20;;;11.20;;
24787;SDS011;12883;52.662;5.196;2023-04-06T05:33:10;11.53;;;11.53;;
24787;SDS011;12883;52.662;5.196;2023-04-06T05:35:35;10.73;;;10.73;;
24787;SDS011;12883;52.662;5.196;2023-04-06T05:38:01;11.00;;;11.00;;
24787;SDS011;12883;52.662;5.196;2023-04-06T05:40:26;11.23;;;11.23;;
24787;SDS011;12883;52.662;5.196;2023-04-06T05:42:52;10.90;;;10.90;;
24787;SDS011;12883;52.662;5.196;2023-04-06T05:45:17;11.97;;;11.97;;
24787;SDS011;12883;52.662;5.196;2023-04-06T05:47:43;10.90;;;10.90;;
24787;SDS011;12883;52.662;5.196;2023-04-06T05:50:13;11.70;;;11.70;;
24787;SDS011;12883;52.662;5.196;2023-04-06T05:52:39;12.03;;;12.03;;
24787;SDS011;12883;52.662;5.196;2023-04-06T05:55:08;12.17;;;12.17;;
24787;SDS011;12883;52.662;5.196;2023-04-06T05:57:34;12.40;;;12.40;;
24787;SDS011;12883;52.662;5.196;2023-04-06T05:59:59;12.13;;;12.10;;
24787;SDS011;12883;52.662;5.196;2023-04-06T06:02:24;13.07;;;13.07;;
24787;SDS011;12883;52.662;5.196;2023-04-06T06:04:50;12.33;;;12.33;;
24787;SDS011;12883;52.662;5.196;2023-04-06T06:07:16;12.07;;;12.07;;
24787;SDS011;12883;52.662;5.196;2023-04-06T06:09:41;13.20;;;13.20;;
24787;SDS011;12883;52.662;5.196;2023-04-06T06:12:07;13.20;;;13.20;;
24787;SDS011;12883;52.662;5.196;2023-04-06T06:14:32;13.73;;;13.70;;
24787;SDS011;12883;52.662;5.196;2023-04-06T06:16:58;12.97;;;12.97;;
24787;SDS011;12883;52.662;5.196;2023-04-06T06:19:23;13.30;;;13.30;;
24787;SDS011;12883;52.662;5.196;2023-04-06T06:21:48;13.90;;;13.90;;
24787;SDS011;12883;52.662;5.196;2023-04-06T06:24:14;14.30;;;14.30;;
24787;SDS011;12883;52.662;5.196;2023-04-06T06:26:39;15.17;;;15.07;;
24787;SDS011;12883;52.662;5.196;2023-04-06T06:29:05;14.87;;;14.77;;
24787;SDS011;12883;52.662;5.196;2023-04-06T06:31:31;13.83;;;13.83;;
24787;SDS011;12883;52.662;5.196;2023-04-06T06:33:57;14.57;;;14.57;;
24787;SDS011;12883;52.662;5.196;2023-04-06T06:36:22;14.50;;;14.40;;
24787;SDS011;12883;52.662;5.196;2023-04-06T06:38:48;14.97;;;14.87;;
24787;SDS011;12883;52.662;5.196;2023-04-06T06:41:13;13.90;;;13.83;;
24787;SDS011;12883;52.662;5.196;2023-04-06T06:43:38;14.13;;;14.13;;
24787;SDS011;12883;52.662;5.196;2023-04-06T06:46:04;14.53;;;14.53;;
24787;SDS011;12883;52.662;5.196;2023-04-06T06:48:30;13.73;;;13.73;;
24787;SDS011;12883;52.662;5.196;2023-04-06T06:50:56;14.60;;;14.50;;
24787;SDS011;12883;52.662;5.196;2023-04-06T06:53:21;14.07;;;14.07;;
24787;SDS011;12883;52.662;5.196;2023-04-06T06:55:47;14.13;;;14.13;;
24787;SDS011;12883;52.662;5.196;2023-04-06T06:58:13;14.87;;;14.77;;
24787;SDS011;12883;52.662;5.196;2023-04-06T07:00:39;14.07;;;14.03;;
24787;SDS011;12883;52.662;5.196;2023-04-06T07:03:04;14.77;;;14.77;;
24787;SDS011;12883;52.662;5.196;2023-04-06T07:05:30;14.80;;;14.70;;
24787;SDS011;12883;52.662;5.196;2023-04-06T07:07:55;16.13;;;16.03;;
24787;SDS011;12883;52.662;5.196;2023-04-06T07:10:21;16.37;;;16.27;;
24787;SDS011;12883;52.662;5.196;2023-04-06T07:12:47;15.57;;;15.47;;
24787;SDS011;12883;52.662;5.196;2023-04-06T07:15:12;15.67;;;15.57;;
24787;SDS011;12883;52.662;5.196;2023-04-06T07:17:37;16.63;;;16.53;;
24787;SDS011;12883;52.662;5.196;2023-04-06T07:20:03;15.50;;;15.40;;
24787;SDS011;12883;52.662;5.196;2023-04-06T07:22:29;15.23;;;15.23;;
24787;SDS011;12883;52.662;5.196;2023-04-06T07:24:55;16.47;;;16.37;;
24787;SDS011;12883;52.662;5.196;2023-04-06T07:27:21;16.93;;;16.83;;
24787;SDS011;12883;52.662;5.196;2023-04-06T07:29:46;17.70;;;17.60;;
24787;SDS011;12883;52.662;5.196;2023-04-06T07:32:12;16.60;;;16.60;;
24787;SDS011;12883;52.662;5.196;2023-04-06T07:34:37;18.63;;;18.53;;
24787;SDS011;12883;52.662;5.196;2023-04-06T07:37:03;18.23;;;18.13;;
24787;SDS011;12883;52.662;5.196;2023-04-06T07:39:28;17.13;;;17.03;;
24787;SDS011;12883;52.662;5.196;2023-04-06T07:41:53;17.90;;;17.80;;
24787;SDS011;12883;52.662;5.196;2023-04-06T07:44:19;17.77;;;17.67;;
24787;SDS011;12883;52.662;5.196;2023-04-06T07:46:44;18.83;;;18.73;;
24787;SDS011;12883;52.662;5.196;2023-04-06T07:49:10;19.17;;;19.07;;
24787;SDS011;12883;52.662;5.196;2023-04-06T07:51:36;19.40;;;19.30;;
24787;SDS011;12883;52.662;5.196;2023-04-06T07:54:03;19.43;;;19.33;;
24787;SDS011;12883;52.662;5.196;2023-04-06T07:56:28;19.73;;;19.63;;
24787;SDS011;12883;52.662;5.196;2023-04-06T07:58:54;20.33;;;20.23;;
24787;SDS011;12883;52.662;5.196;2023-04-06T08:01:21;20.27;;;20.17;;
24787;SDS011;12883;52.662;5.196;2023-04-06T08:03:46;19.80;;;19.70;;
24787;SDS011;12883;52.662;5.196;2023-04-06T08:06:12;20.30;;;20.20;;
24787;SDS011;12883;52.662;5.196;2023-04-06T08:08:37;21.43;;;21.33;;
24787;SDS011;12883;52.662;5.196;2023-04-06T08:11:02;20.47;;;20.37;;
24787;SDS011;12883;52.662;5.196;2023-04-06T08:13:28;21.20;;;21.10;;
24787;SDS011;12883;52.662;5.196;2023-04-06T08:15:53;21.80;;;21.70;;
24787;SDS011;12883;52.662;5.196;2023-04-06T08:18:19;21.23;;;21.13;;
24787;SDS011;12883;52.662;5.196;2023-04-06T08:20:44;20.67;;;20.57;;
24787;SDS011;12883;52.662;5.196;2023-04-06T08:23:09;20.83;;;20.73;;
24787;SDS011;12883;52.662;5.196;2023-04-06T08:25:36;20.10;;;20.00;;
24787;SDS011;12883;52.662;5.196;2023-04-06T08:28:02;21.23;;;21.13;;
24787;SDS011;12883;52.662;5.196;2023-04-06T08:30:28;22.50;;;22.40;;
24787;SDS011;12883;52.662;5.196;2023-04-06T08:32:54;22.83;;;22.73;;
24787;SDS011;12883;52.662;5.196;2023-04-06T08:35:20;22.10;;;22.00;;
24787;SDS011;12883;52.662;5.196;2023-04-06T08:37:45;21.27;;;21.17;;
24787;SDS011;12883;52.662;5.196;2023-04-06T08:40:11;22.70;;;22.60;;
24787;SDS011;12883;52.662;5.196;2023-04-06T08:42:42;23.37;;;23.27;;
24787;SDS011;12883;52.662;5.196;2023-04-06T08:45:14;22.70;;;22.60;;
24787;SDS011;12883;52.662;5.196;2023-04-06T08:47:41;23.63;;;23.53;;
24787;SDS011;12883;52.662;5.196;2023-04-06T08:50:07;23.43;;;23.33;;
24787;SDS011;12883;52.662;5.196;2023-04-06T08:52:33;23.77;;;23.67;;
24787;SDS011;12883;52.662;5.196;2023-04-06T08:54:59;22.87;;;22.77;;
24787;SDS011;12883;52.662;5.196;2023-04-06T08:57:25;22.93;;;22.83;;
24787;SDS011;12883;52.662;5.196;2023-04-06T08:59:52;22.37;;;22.27;;
24787;SDS011;12883;52.662;5.196;2023-04-06T09:02:18;22.33;;;22.23;;
24787;SDS011;12883;52.662;5.196;2023-04-06T09:04:48;23.00;;;22.90;;
24787;SDS011;12883;52.662;5.196;2023-04-06T09:07:17;24.43;;;24.33;;
24787;SDS011;12883;52.662;5.196;2023-04-06T09:09:42;22.90;;;22.80;;
24787;SDS011;12883;52.662;5.196;2023-04-06T09:12:22;22.43;;;22.33;;
24787;SDS011;12883;52.662;5.196;2023-04-06T09:14:51;24.17;;;24.07;;
24787;SDS011;12883;52.662;5.196;2023-04-06T09:17:21;23.27;;;23.17;;
24787;SDS011;12883;52.662;5.196;2023-04-06T09:19:47;23.53;;;23.43;;
24787;SDS011;12883;52.662;5.196;2023-04-06T09:22:12;23.07;;;22.97;;
24787;SDS011;12883;52.662;5.196;2023-04-06T09:27:06;22.43;;;22.33;;
24787;SDS011;12883;52.662;5.196;2023-04-06T09:29:31;23.13;;;23.03;;
24787;SDS011;12883;52.662;5.196;2023-04-06T09:32:07;22.60;;;22.50;;
24787;SDS011;12883;52.662;5.196;2023-04-06T09:34:36;22.37;;;22.27;;
24787;SDS011;12883;52.662;5.196;2023-04-06T09:39:39;21.57;;;21.47;;
24787;SDS011;12883;52.662;5.196;2023-04-06T09:42:04;22.20;;;22.10;;
24787;SDS011;12883;52.662;5.196;2023-04-06T09:44:30;22.33;;;22.23;;
24787;SDS011;12883;52.662;5.196;2023-04-06T09:46:55;22.17;;;22.07;;
24787;SDS011;12883;52.662;5.196;2023-04-06T09:49:21;21.77;;;21.67;;
24787;SDS011;12883;52.662;5.196;2023-04-06T09:51:54;22.97;;;22.87;;
24787;SDS011;12883;52.662;5.196;2023-04-06T09:54:22;23.07;;;22.97;;
24787;SDS011;12883;52.662;5.196;2023-04-06T09:56:56;21.40;;;21.30;;
24787;SDS011;12883;52.662;5.196;2023-04-06T10:01:52;22.33;;;22.23;;
24787;SDS011;12883;52.662;5.196;2023-04-06T10:04:27;22.90;;;22.80;;
24787;SDS011;12883;52.662;5.196;2023-04-06T10:07:01;22.13;;;22.03;;
24787;SDS011;12883;52.662;5.196;2023-04-06T10:09:28;22.40;;;22.30;;
24787;SDS011;12883;52.662;5.196;2023-04-06T10:12:01;22.67;;;22.57;;
24787;SDS011;12883;52.662;5.196;2023-04-06T10:14:31;21.07;;;20.97;;
24787;SDS011;12883;52.662;5.196;2023-04-06T10:16:57;23.10;;;23.00;;
24787;SDS011;12883;52.662;5.196;2023-04-06T10:19:24;22.87;;;22.77;;
24787;SDS011;12883;52.662;5.196;2023-04-06T10:21:54;23.43;;;23.33;;
24787;SDS011;12883;52.662;5.196;2023-04-06T10:24:23;20.60;;;20.50;;
24787;SDS011;12883;52.662;5.196;2023-04-06T10:26:58;22.93;;;22.83;;
24787;SDS011;12883;52.662;5.196;2023-04-06T10:29:26;22.07;;;21.97;;
24787;SDS011;12883;52.662;5.196;2023-04-06T10:31:52;22.03;;;21.93;;
24787;SDS011;12883;52.662;5.196;2023-04-06T10:34:17;22.40;;;22.30;;
24787;SDS011;12883;52.662;5.196;2023-04-06T10:36:44;22.37;;;22.27;;
24787;SDS011;12883;52.662;5.196;2023-04-06T10:39:09;22.80;;;22.70;;
24787;SDS011;12883;52.662;5.196;2023-04-06T10:41:36;20.93;;;20.83;;
24787;SDS011;12883;52.662;5.196;2023-04-06T10:44:06;22.43;;;22.33;;
24787;SDS011;12883;52.662;5.196;2023-04-06T10:46:32;21.83;;;21.73;;
24787;SDS011;12883;52.662;5.196;2023-04-06T10:49:09;22.60;;;22.50;;
24787;SDS011;12883;52.662;5.196;2023-04-06T10:51:37;20.00;;;19.90;;
24787;SDS011;12883;52.662;5.196;2023-04-06T10:54:03;19.57;;;19.47;;
24787;SDS011;12883;52.662;5.196;2023-04-06T10:56:29;20.50;;;20.40;;
24787;SDS011;12883;52.662;5.196;2023-04-06T10:58:59;21.00;;;20.90;;
24787;SDS011;12883;52.662;5.196;2023-04-06T11:01:25;19.03;;;18.93;;
24787;SDS011;12883;52.662;5.196;2023-04-06T11:03:53;19.70;;;19.60;;
24787;SDS011;12883;52.662;5.196;2023-04-06T11:06:27;19.13;;;19.03;;
24787;SDS011;12883;52.662;5.196;2023-04-06T11:08:56;20.27;;;20.17;;
24787;SDS011;12883;52.662;5.196;2023-04-06T11:11:23;20.27;;;20.17;;
24787;SDS011;12883;52.662;5.196;2023-04-06T11:13:55;20.90;;;20.80;;
24787;SDS011;12883;52.662;5.196;2023-04-06T11:21:14;17.17;;;17.07;;
24787;SDS011;12883;52.662;5.196;2023-04-06T11:23:39;15.37;;;15.27;;
24787;SDS011;12883;52.662;5.196;2023-04-06T11:26:09;15.47;;;15.37;;
24787;SDS011;12883;52.662;5.196;2023-04-06T11:28:42;16.30;;;16.20;;
24787;SDS011;12883;52.662;5.196;2023-04-06T11:31:10;13.70;;;13.63;;
24787;SDS011;12883;52.662;5.196;2023-04-06T11:33:37;10.73;;;10.73;;
24787;SDS011;12883;52.662;5.196;2023-04-06T11:36:06;11.03;;;11.03;;
24787;SDS011;12883;52.662;5.196;2023-04-06T11:38:31;10.80;;;10.80;;
24787;SDS011;12883;52.662;5.196;2023-04-06T11:40:57;9.73;;;9.73;;
24787;SDS011;12883;52.662;5.196;2023-04-06T11:43:27;9.53;;;9.53;;
24787;SDS011;12883;52.662;5.196;2023-04-06T11:46:02;9.30;;;9.30;;
24787;SDS011;12883;52.662;5.196;2023-04-06T11:48:29;9.30;;;9.30;;
24787;SDS011;12883;52.662;5.196;2023-04-06T11:50:55;7.93;;;7.93;;
24787;SDS011;12883;52.662;5.196;2023-04-06T11:53:22;7.00;;;7.00;;
24787;SDS011;12883;52.662;5.196;2023-04-06T11:55:47;7.10;;;7.10;;
24787;SDS011;12883;52.662;5.196;2023-04-06T11:58:13;5.40;;;5.40;;
24787;SDS011;12883;52.662;5.196;2023-04-06T12:00:38;5.00;;;5.00;;
24787;SDS011;12883;52.662;5.196;2023-04-06T12:03:04;3.77;;;3.77;;
24787;SDS011;12883;52.662;5.196;2023-04-06T12:05:29;3.87;;;3.87;;
24787;SDS011;12883;52.662;5.196;2023-04-06T12:07:55;3.60;;;3.60;;
24787;SDS011;12883;52.662;5.196;2023-04-06T12:10:20;3.50;;;3.50;;
24787;SDS011;12883;52.662;5.196;2023-04-06T12:12:46;3.77;;;3.77;;
24787;SDS011;12883;52.662;5.196;2023-04-06T12:15:11;3.17;;;3.17;;
24787;SDS011;12883;52.662;5.196;2023-04-06T12:17:36;3.30;;;3.30;;
24787;SDS011;12883;52.662;5.196;2023-04-06T12:20:02;3.87;;;3.87;;
24787;SDS011;12883;52.662;5.196;2023-04-06T12:22:28;3.73;;;3.73;;
24787;SDS011;12883;52.662;5.196;2023-04-06T12:24:53;3.80;;;3.80;;
24787;SDS011;12883;52.662;5.196;2023-04-06T12:27:19;4.00;;;4.00;;
24787;SDS011;12883;52.662;5.196;2023-04-06T12:29:44;4.23;;;4.23;;
24787;SDS011;12883;52.662;5.196;2023-04-06T12:32:10;4.60;;;4.60;;
24787;SDS011;12883;52.662;5.196;2023-04-06T12:34:37;4.23;;;4.23;;
24787;SDS011;12883;52.662;5.196;2023-04-06T12:37:02;4.30;;;4.30;;
24787;SDS011;12883;52.662;5.196;2023-04-06T12:39:28;4.77;;;4.77;;
24787;SDS011;12883;52.662;5.196;2023-04-06T12:41:53;4.90;;;4.90;;
24787;SDS011;12883;52.662;5.196;2023-04-06T12:44:20;4.60;;;4.60;;
24787;SDS011;12883;52.662;5.196;2023-04-06T12:46:45;4.73;;;4.73;;
24787;SDS011;12883;52.662;5.196;2023-04-06T12:49:11;4.43;;;4.43;;
24787;SDS011;12883;52.662;5.196;2023-04-06T12:51:37;5.00;;;5.00;;
24787;SDS011;12883;52.662;5.196;2023-04-06T12:54:02;4.90;;;4.90;;
24787;SDS011;12883;52.662;5.196;2023-04-06T12:56:27;5.70;;;5.70;;
24787;SDS011;12883;52.662;5.196;2023-04-06T12:58:53;5.60;;;5.60;;
24787;SDS011;12883;52.662;5.196;2023-04-06T13:01:18;5.57;;;5.57;;
24787;SDS011;12883;52.662;5.196;2023-04-06T13:03:44;5.80;;;5.80;;
24787;SDS011;12883;52.662;5.196;2023-04-06T13:06:10;6.20;;;6.20;;
24787;SDS011;12883;52.662;5.196;2023-04-06T13:08:36;6.13;;;6.13;;
24787;SDS011;12883;52.662;5.196;2023-04-06T13:11:03;7.17;;;7.17;;
24787;SDS011;12883;52.662;5.196;2023-04-06T13:13:29;6.70;;;6.70;;
24787;SDS011;12883;52.662;5.196;2023-04-06T13:15:59;7.77;;;7.77;;
24787;SDS011;12883;52.662;5.196;2023-04-06T13:18:27;7.67;;;7.67;;
24787;SDS011;12883;52.662;5.196;2023-04-06T13:20:55;8.60;;;8.60;;
24787;SDS011;12883;52.662;5.196;2023-04-06T13:23:21;8.00;;;8.00;;
24787;SDS011;12883;52.662;5.196;2023-04-06T13:25:47;7.93;;;7.93;;
24787;SDS011;12883;52.662;5.196;2023-04-06T13:28:12;8.80;;;8.80;;
24787;SDS011;12883;52.662;5.196;2023-04-06T13:30:38;8.63;;;8.63;;
24787;SDS011;12883;52.662;5.196;2023-04-06T13:33:04;8.60;;;8.60;;
24787;SDS011;12883;52.662;5.196;2023-04-06T13:35:29;9.27;;;9.27;;
24787;SDS011;12883;52.662;5.196;2023-04-06T13:37:55;9.40;;;9.40;;
24787;SDS011;12883;52.662;5.196;2023-04-06T13:40:20;9.73;;;9.73;;
24787;SDS011;12883;52.662;5.196;2023-04-06T13:42:46;9.77;;;9.77;;
24787;SDS011;12883;52.662;5.196;2023-04-06T13:45:12;10.67;;;10.67;;
24787;SDS011;12883;52.662;5.196;2023-04-06T13:47:38;11.40;;;11.40;;
24787;SDS011;12883;52.662;5.196;2023-04-06T13:50:03;10.93;;;10.93;;
24787;SDS011;12883;52.662;5.196;2023-04-06T13:52:29;10.57;;;10.57;;
24787;SDS011;12883;52.662;5.196;2023-04-06T13:54:54;11.10;;;11.10;;
24787;SDS011;12883;52.662;5.196;2023-04-06T13:57:20;10.87;;;10.87;;
24787;SDS011;12883;52.662;5.196;2023-04-06T13:59:45;11.73;;;11.73;;
24787;SDS011;12883;52.662;5.196;2023-04-06T14:02:11;10.83;;;10.83;;
24787;SDS011;12883;52.662;5.196;2023-04-06T14:04:36;11.63;;;11.63;;
24787;SDS011;12883;52.662;5.196;2023-04-06T14:07:02;12.40;;;12.40;;
24787;SDS011;12883;52.662;5.196;2023-04-06T14:09:28;12.87;;;12.87;;
24787;SDS011;12883;52.662;5.196;2023-04-06T14:11:55;11.53;;;11.53;;
24787;SDS011;12883;52.662;5.196;2023-04-06T14:14:20;11.47;;;11.47;;
24787;SDS011;12883;52.662;5.196;2023-04-06T14:16:46;12.33;;;12.33;;
24787;SDS011;12883;52.662;5.196;2023-04-06T14:19:15;12.73;;;12.73;;
24787;SDS011;12883;52.662;5.196;2023-04-06T14:21:42;11.90;;;11.90;;
24787;SDS011;12883;52.662;5.196;2023-04-06T14:24:09;11.63;;;11.63;;
24787;SDS011;12883;52.662;5.196;2023-04-06T14:26:34;11.87;;;11.87;;
24787;SDS011;12883;52.662;5.196;2023-04-06T14:29:00;11.53;;;11.53;;
24787;SDS011;12883;52.662;5.196;2023-04-06T14:31:26;11.63;;;11.63;;
24787;SDS011;12883;52.662;5.196;2023-04-06T14:33:52;11.30;;;11.30;;
24787;SDS011;12883;52.662;5.196;2023-04-06T14:36:17;12.03;;;12.03;;
24787;SDS011;12883;52.662;5.196;2023-04-06T14:38:42;10.77;;;10.77;;